Terminal Aerodrome Forecast
Issued by NWS

Home | Current Version | Previous Version | Text Only | Print | Product List | Glossary On
Versions: 1 2 3 4 5 6 7 8 9 10 11 12 13 14 15 16 17
000
FTUS41 KBTV 221720
TAFSLK
TAF
KSLK 221720Z 2218/2318 23010KT P6SM SCT150
     FM230100 VRB03KT 6SM -SHRA BR BKN050
     FM230600 16006KT 5SM -SHRA BR OVC060 WS020/26035KT
     FM231000 21006KT 4SM -SHRA BR BKN020
     FM231300 22009KT 5SM SHRA BR OVC020
     FM231700 22012G18KT 5SM SHRA BR BKN030=

USA.gov is the U.S. government's official web portal to all federal, state and local government web resources and services.